Time;durP1;ratioP1;P1;durP2;ratioP2;P2;SDS_P1;SDS_P2;PMS_P1;PMS_P2;Temp;Humidity;BMP_temperature;BMP_pressure;BME280_temperature;BME280_humidity;BME280_pressure;Samples;Min_cycle;Max_cycle;Signal;HPM_P1;HPM_P2
2023/05/12 00:00:47;;;;;;;7.88;7.07;;;;;;;12.34;100.00;101767.22;10378772;28;20050;-83
2023/05/12 00:05:48;;;;;;;11.82;7.93;;;;;;;12.28;100.00;101773.44;10345771;28;20507;-81
2023/05/12 00:10:48;;;;;;;9.77;7.55;;;;;;;12.22;100.00;101768.75;10361608;28;20065;-84
2023/05/12 00:15:49;;;;;;;10.95;7.82;;;;;;;12.12;100.00;101768.16;10346442;28;20052;-83
2023/05/12 00:20:50;;;;;;;7.10;6.38;;;;;;;12.09;100.00;101763.97;10346423;28;20034;-84
2023/05/12 00:25:50;;;;;;;8.70;6.15;;;;;;;12.04;100.00;101776.41;10346379;28;20053;-81
2023/05/12 00:30:51;;;;;;;9.80;7.22;;;;;;;12.01;100.00;101764.03;10381588;28;20040;-82
2023/05/12 00:35:51;;;;;;;8.27;6.28;;;;;;;11.94;100.00;101764.97;10378462;28;20443;-83
2023/05/12 00:40:51;;;;;;;7.10;5.55;;;;;;;11.93;100.00;101774.97;10377717;28;20037;-82
2023/05/12 00:45:52;;;;;;;9.13;6.30;;;;;;;11.89;100.00;101759.25;10344585;28;20041;-83
2023/05/12 00:50:54;;;;;;;8.10;5.28;;;;;;;11.85;100.00;101758.78;10378952;28;20038;-84
2023/05/12 00:55:56;;;;;;;9.15;6.10;;;;;;;11.78;100.00;101760.53;10344051;28;20025;-81
2023/05/12 01:00:56;;;;;;;8.48;6.43;;;;;;;11.69;100.00;101767.06;10343252;28;20033;-83
2023/05/12 01:06:08;;;;;;;6.30;5.18;;;;;;;11.62;100.00;101756.09;10380075;28;20065;-84
2023/05/12 01:11:08;;;;;;;5.60;4.55;;;;;;;11.62;100.00;101764.22;10350242;28;20042;-84
2023/05/12 01:16:09;;;;;;;11.73;5.88;;;;;;;11.53;100.00;101758.03;10377208;28;20118;-84
2023/05/12 01:21:09;;;;;;;6.43;4.93;;;;;;;11.47;100.00;101750.63;10360171;28;20040;-83
2023/05/12 01:26:09;;;;;;;7.03;5.35;;;;;;;11.38;100.00;101749.84;10348560;28;20135;-82
2023/05/12 01:31:10;;;;;;;7.03;4.47;;;;;;;11.31;100.00;101754.31;10347939;28;20029;-83
2023/05/12 01:36:10;;;;;;;4.57;3.95;;;;;;;11.28;100.00;101754.66;10344958;28;20033;-82
2023/05/12 01:41:11;;;;;;;6.68;5.15;;;;;;;11.31;100.00;101754.31;10380573;28;20043;-80
2023/05/12 01:46:11;;;;;;;8.45;6.15;;;;;;;11.28;100.00;101748.41;10382744;28;20044;-81
2023/05/12 01:51:12;;;;;;;10.13;7.75;;;;;;;11.26;100.00;101750.44;10371048;28;20038;-81
2023/05/12 01:56:12;;;;;;;10.98;7.68;;;;;;;11.27;100.00;101754.88;10382686;28;20057;-81
2023/05/12 02:01:13;;;;;;;24.25;7.60;;;;;;;11.31;100.00;101754.31;10376346;28;20043;-82
2023/05/12 02:06:13;;;;;;;9.35;8.32;;;;;;;11.28;100.00;101754.66;10361893;28;20069;-81
2023/05/12 02:11:14;;;;;;;10.70;8.63;;;;;;;11.30;100.00;101747.19;10376696;28;20033;-82
2023/05/12 02:16:15;;;;;;;14.35;9.20;;;;;;;11.31;100.00;101754.31;10359520;28;20538;-75
2023/05/12 02:21:15;;;;;;;20.08;8.80;;;;;;;11.32;100.00;101742.41;10375724;28;20405;-74
2023/05/12 02:26:15;;;;;;;13.15;8.52;;;;;;;11.36;100.00;101742.94;10339416;28;20065;-74
2023/05/12 02:31:16;;;;;;;19.23;10.02;;;;;;;11.37;100.00;101736.47;10356280;28;20096;-75
2023/05/12 02:36:16;;;;;;;12.43;9.10;;;;;;;11.38;100.00;101735.44;10355652;28;20096;-73
2023/05/12 02:41:16;;;;;;;11.32;10.07;;;;;;;11.39;100.00;101731.69;10373808;28;20088;-73
2023/05/12 02:51:27;;;;;;;13.57;9.32;;;;;;;11.35;100.00;101728.50;10714074;22;20262;-73
2023/05/12 02:56:28;;;;;;;18.35;9.63;;;;;;;11.30;100.00;101730.94;10292425;28;20094;-74
2023/05/12 03:01:28;;;;;;;10.18;8.32;;;;;;;11.30;100.00;101730.94;10265200;28;20071;-74
2023/05/12 03:06:29;;;;;;;16.95;9.63;;;;;;;11.29;100.00;101714.84;10292646;28;20046;-73
2023/05/12 03:11:29;;;;;;;15.57;7.88;;;;;;;11.27;100.00;101706.91;10293886;28;20115;-72
2023/05/12 03:16:29;;;;;;;7.82;6.25;;;;;;;11.21;100.00;101710.31;10275464;28;20042;-73
2023/05/12 03:21:30;;;;;;;16.65;6.93;;;;;;;11.18;100.00;101703.41;10274740;28;20035;-73
2023/05/12 03:26:30;;;;;;;7.43;6.63;;;;;;;11.15;100.00;101697.50;10274286;28;20039;-72
2023/05/12 03:31:31;;;;;;;10.40;7.45;;;;;;;11.06;100.00;101696.72;10274678;28;20035;-73
2023/05/12 03:36:31;;;;;;;7.20;6.30;;;;;;;11.06;100.00;101688.59;10295969;28;20059;-73
2023/05/12 03:41:32;;;;;;;8.50;5.90;;;;;;;11.09;100.00;101695.50;10298913;28;20206;-72
2023/05/12 03:46:32;;;;;;;4.90;4.07;;;;;;;11.02;100.00;101692.69;10298836;28;20070;-72
2023/05/12 03:51:32;;;;;;;7.45;4.00;;;;;;;11.00;100.00;101691.19;10290373;28;20442;-72
2023/05/12 03:56:33;;;;;;;3.83;3.33;;;;;;;10.98;100.00;101685.94;10298106;28;20130;-72
2023/05/12 04:01:34;;;;;;;5.40;3.30;;;;;;;10.97;100.00;101686.13;10297494;28;20031;-72
2023/05/12 04:06:35;;;;;;;6.68;2.92;;;;;;;10.91;100.00;101676.84;10299233;28;20086;-72
2023/05/12 04:11:36;;;;;;;3.53;2.67;;;;;;;10.90;100.00;101686.84;10297001;28;20062;-72
2023/05/12 04:16:37;;;;;;;1.88;1.77;;;;;;;10.86;100.00;101677.38;10298744;28;20101;-73
2023/05/12 04:21:37;;;;;;;3.13;1.88;;;;;;;10.87;100.00;101687.19;10297771;28;20031;-72
2023/05/12 04:26:38;;;;;;;3.38;2.67;;;;;;;10.82;100.00;101667.94;10313875;28;20039;-74
2023/05/12 04:31:38;;;;;;;3.30;2.45;;;;;;;10.84;100.00;101676.72;10295776;28;20042;-74
2023/05/12 04:36:38;;;;;;;13.20;4.05;;;;;;;10.85;100.00;101683.84;10302095;28;20038;-75
2023/05/12 04:41:39;;;;;;;12.02;4.60;;;;;;;10.85;100.00;101683.00;10297193;28;20034;-74
2023/05/12 04:46:39;;;;;;;6.57;4.25;;;;;;;10.86;100.00;101684.69;10295386;28;20057;-73
2023/05/12 04:51:41;;;;;;;6.60;5.05;;;;;;;10.91;100.00;101682.25;10311430;28;20397;-73
2023/05/12 04:56:42;;;;;;;9.30;5.05;;;;;;;10.95;100.00;101689.03;10295148;28;20039;-74
2023/05/12 05:01:42;;;;;;;9.55;6.20;;;;;;;10.99;100.00;101690.34;10295910;28;20489;-73
2023/05/12 05:06:42;;;;;;;7.65;6.85;;;;;;;11.03;100.00;101697.06;10294702;28;20078;-72
2023/05/12 05:11:43;;;;;;;11.35;7.55;;;;;;;11.09;100.00;101696.34;10295755;28;20447;-73
2023/05/12 05:16:44;;;;;;;18.23;8.82;;;;;;;11.15;100.00;101692.06;10295336;28;20125;-73
2023/05/12 05:21:45;;;;;;;18.55;9.75;;;;;;;11.17;100.00;101698.19;10295285;28;20513;-72
2023/05/12 05:26:45;;;;;;;14.10;10.35;;;;;;;11.22;100.00;101698.44;10293804;28;20053;-73
2023/05/12 05:31:46;;;;;;;15.38;11.60;;;;;;;11.25;100.00;101703.50;10294124;28;20086;-73
2023/05/12 05:36:46;;;;;;;17.50;11.73;;;;;;;11.29;100.00;101706.69;10294754;28;20073;-73
2023/05/12 05:41:47;;;;;;;14.68;12.63;;;;;;;11.36;100.00;101700.38;10295965;28;20086;-74
2023/05/12 05:46:47;;;;;;;24.88;14.10;;;;;;;11.39;100.00;101708.16;10293761;28;20126;-74
2023/05/12 05:51:47;;;;;;;18.77;14.38;;;;;;;11.42;100.00;101715.06;10294672;28;20086;-73
2023/05/12 05:56:48;;;;;;;14.90;12.95;;;;;;;11.41;100.00;101725.06;10294395;28;20034;-73
2023/05/12 06:01:48;;;;;;;19.15;14.85;;;;;;;11.45;100.00;101727.41;10276165;28;20398;-72
2023/05/12 06:06:49;;;;;;;19.25;13.40;;;;;;;11.53;100.00;101717.34;10294974;28;20192;-74
2023/05/12 06:11:49;;;;;;;32.53;17.15;;;;;;;11.57;100.00;101725.94;10281056;28;20042;-72
2023/05/12 06:16:49;;;;;;;23.13;16.25;;;;;;;11.60;100.00;101725.59;10293657;28;20378;-73
2023/05/12 06:21:51;;;;;;;37.72;18.83;;;;;;;11.66;100.00;101726.72;10292330;28;20406;-74
2023/05/12 06:26:51;;;;;;;30.90;21.25;;;;;;;11.77;100.00;101735.25;10275644;28;20122;-75
2023/05/12 06:31:52;;;;;;;38.08;24.27;;;;;;;11.81;100.00;101736.56;10293135;28;20121;-73
2023/05/12 06:36:52;;;;;;;31.73;25.20;;;;;;;11.91;100.00;101735.50;10293340;28;20043;-74
2023/05/12 06:41:53;;;;;;;55.00;31.80;;;;;;;11.99;100.00;101725.38;10294510;28;20088;-74
2023/05/12 06:46:53;;;;;;;54.80;32.30;;;;;;;12.13;100.00;101736.44;10292728;28;20031;-73
2023/05/12 06:51:54;;;;;;;41.08;28.35;;;;;;;12.21;100.00;101744.47;10294521;28;20085;-74
2023/05/12 06:56:54;;;;;;;55.33;29.20;;;;;;;12.36;100.00;101742.59;10293932;28;20541;-74
2023/05/12 07:01:54;;;;;;;46.80;30.90;;;;;;;12.71;100.00;101746.38;10276342;28;20034;-74
2023/05/12 07:06:55;;;;;;;45.63;32.25;;;;;;;12.96;100.00;101738.72;10276825;28;20073;-72
2023/05/12 07:11:56;;;;;;;41.17;31.90;;;;;;;13.02;100.00;101756.16;10281913;28;20031;-74
2023/05/12 07:16:56;;;;;;;37.50;27.23;;;;;;;13.07;100.00;101756.41;10285389;28;20035;-75
2023/05/12 07:21:57;;;;;;;38.17;27.08;;;;;;;13.08;100.00;101762.69;10301181;28;20378;-75
2023/05/12 07:26:57;;;;;;;37.80;24.05;;;;;;;13.28;100.00;101760.22;10302858;28;20494;-75
2023/05/12 07:31:58;;;;;;;37.05;21.73;;;;;;;13.45;100.00;101759.72;10303454;28;20143;-76
2023/05/12 07:37:01;;;;;;;27.73;19.42;;;;;;;13.62;100.00;101765.72;10304772;28;20050;-76
2023/05/12 07:42:02;;;;;;;24.05;16.58;;;;;;;14.19;100.00;101763.84;10309365;28;20137;-77
2023/05/12 07:47:02;;;;;;;24.63;14.27;;;;;;;14.29;100.00;101772.50;10306061;28;20049;-77
2023/05/12 07:52:03;;;;;;;18.75;14.00;;;;;;;14.50;100.00;101768.00;10304647;28;20051;-75
2023/05/12 07:57:03;;;;;;;24.63;13.40;;;;;;;14.70;100.00;101762.66;10303538;28;20512;-77
2023/05/12 08:02:04;;;;;;;18.17;15.10;;;;;;;15.15;100.00;101774.75;10283671;28;20467;-78
2023/05/12 08:07:04;;;;;;;16.38;12.95;;;;;;;15.53;100.00;101774.19;10303046;28;20094;-77
2023/05/12 08:12:05;;;;;;;26.15;13.90;;;;;;;16.13;100.00;101774.19;10304205;28;20034;-79
2023/05/12 08:17:05;;;;;;;19.73;13.98;;;;;;;16.05;100.00;101783.47;10300334;28;20046;-77
2023/05/12 08:22:06;;;;;;;18.90;13.25;;;;;;;16.44;100.00;101785.25;10297928;28;20527;-75
2023/05/12 08:27:06;;;;;;;20.10;14.75;;;;;;;16.74;100.00;101790.19;10280619;28;20035;-75
2023/05/12 08:32:06;;;;;;;19.88;13.18;;;;;;;16.38;100.00;101786.13;10298698;28;20031;-76
2023/05/12 08:37:07;;;;;;;19.00;12.52;;;;;;;15.93;100.00;101801.53;10297185;28;20441;-78
2023/05/12 08:42:31;;;;;;;18.02;12.32;;;;;;;15.97;100.00;101798.16;10280995;28;20035;-78
2023/05/12 08:47:32;;;;;;;19.40;12.38;;;;;;;16.32;100.00;101795.19;10296945;28;20114;-76
2023/05/12 08:52:33;;;;;;;15.85;13.20;;;;;;;16.72;100.00;101803.28;10296372;28;20137;-75
2023/05/12 08:57:34;;;;;;;14.23;11.77;;;;;;;17.16;100.00;101807.06;10295307;28;20565;-76
2023/05/12 09:02:35;;;;;;;15.73;12.20;;;;;;;16.84;100.00;101804.28;10294419;28;20138;-79
2023/05/12 09:07:38;;;;;;;19.15;13.85;;;;;;;16.94;100.00;101806.56;10279347;28;20038;-77
2023/05/12 09:12:39;;;;;;;21.33;14.90;;;;;;;17.34;100.00;101809.09;10278837;28;20035;-76
2023/05/12 09:17:39;;;;;;;18.27;13.43;;;;;;;17.93;100.00;101796.84;10281954;28;20045;-76
2023/05/12 09:22:40;;;;;;;14.50;12.73;;;;;;;19.04;100.00;101786.75;10298130;28;20042;-76
2023/05/12 09:27:40;;;;;;;14.55;10.90;;;;;;;18.35;100.00;101800.66;10297911;28;20466;-76
2023/05/12 09:32:41;;;;;;;16.55;11.35;;;;;;;18.15;100.00;101805.50;10294703;28;20039;-77
2023/05/12 09:37:41;;;;;;;14.88;11.90;;;;;;;18.34;100.00;101803.63;10295158;28;20029;-78
2023/05/12 09:42:42;;;;;;;17.83;11.35;;;;;;;18.89;100.00;101800.06;10294531;28;20065;-76
2023/05/12 09:47:44;;;;;;;17.33;12.35;;;;;;;19.11;100.00;101805.88;10294045;28;20497;-77
2023/05/12 09:52:44;;;;;;;19.15;11.15;;;;;;;19.07;100.00;101819.25;10276591;28;20438;-77
2023/05/12 09:57:44;;;;;;;11.85;10.85;;;;;;;18.98;100.00;101810.47;10294142;28;20098;-77
2023/05/12 10:02:46;;;;;;;12.73;11.30;;;;;;;19.24;100.00;101809.31;10261290;28;20175;-74
2023/05/12 10:07:49;;;;;;;22.73;10.52;;;;;;;19.71;100.00;101801.19;10278623;28;20035;-77
2023/05/12 10:12:50;;;;;;;12.45;11.07;;;;;;;20.18;100.00;101808.66;10277469;28;20081;-76
2023/05/12 10:17:50;;;;;;;17.85;10.90;;;;;;;20.05;100.00;101815.22;10276930;28;20387;-77
2023/05/12 10:22:51;;;;;;;13.75;11.52;;;;;;;20.72;100.00;101811.25;10293386;28;20105;-78
2023/05/12 10:27:52;;;;;;;12.48;9.55;;;;;;;21.18;100.00;101815.75;10260224;28;20042;-73
2023/05/12 10:32:53;;;;;;;13.13;10.75;;;;;;;20.72;100.00;101819.50;10300909;28;20039;-76
2023/05/12 10:37:54;;;;;;;13.93;9.57;;;;;;;20.82;100.00;101825.22;10305868;28;20393;-75
2023/05/12 10:42:57;;;;;;;12.57;11.05;;;;;;;21.16;100.00;101814.34;10305722;28;20419;-74
2023/05/12 10:48:08;;;;;;;12.20;10.40;;;;;;;21.35;100.00;101824.09;10287940;28;20062;-76
2023/05/12 10:53:10;;;;;;;15.05;11.40;;;;;;;21.12;100.00;101825.00;10309353;28;20057;-75
2023/05/12 10:58:11;;;;;;;22.10;11.10;;;;;;;21.00;100.00;101818.72;10273329;28;20039;-76
2023/05/12 11:03:12;;;;;;;13.45;10.85;;;;;;;20.80;100.00;101817.19;10305586;28;20050;-76
2023/05/12 11:08:14;;;;;;;14.27;11.00;;;;;;;20.32;100.00;101820.25;10306644;28;20039;-75
2023/05/12 11:13:16;;;;;;;15.38;10.13;;;;;;;19.42;100.00;101824.03;10306051;28;20031;-76
2023/05/12 11:18:20;;;;;;;13.48;10.02;;;;;;;19.40;100.00;101816.03;10304726;28;20035;-76
2023/05/12 11:23:28;;;;;;;13.63;10.45;;;;;;;20.31;100.00;101819.41;10288197;28;20043;-76
2023/05/12 11:28:28;;;;;;;17.75;13.90;;;;;;;20.92;100.00;101819.91;10288336;28;20035;-77
2023/05/12 11:33:29;;;;;;;15.15;12.98;;;;;;;21.80;100.00;101820.50;10287388;28;20043;-75
2023/05/12 11:38:29;;;;;;;16.05;12.70;;;;;;;22.03;100.00;101820.31;10305292;28;20109;-78
2023/05/12 11:43:29;;;;;;;19.08;12.25;;;;;;;21.48;100.00;101832.06;10305688;28;20053;-78
2023/05/12 11:48:33;;;;;;;25.20;13.77;;;;;;;21.13;100.00;101824.75;10289435;28;20519;-75
2023/05/12 11:53:39;;;;;;;28.15;13.18;;;;;;;20.29;100.00;101831.72;10307022;28;20039;-77
2023/05/12 11:58:39;;;;;;;16.17;12.07;;;;;;;20.24;100.00;101832.44;10284880;28;20109;-76
2023/05/12 12:03:49;;;;;;;28.98;13.68;;;;;;;21.39;100.00;101832.72;10281355;28;20045;-76
2023/05/12 12:08:53;;;;;;;18.13;13.07;;;;;;;21.29;100.00;101845.19;10280935;28;20062;-77
2023/05/12 12:13:57;;;;;;;17.83;13.90;;;;;;;21.19;100.00;101847.75;10264800;28;20454;-77
2023/05/12 12:18:57;;;;;;;17.90;13.25;;;;;;;21.71;100.00;101852.31;10282139;28;20073;-76
2023/05/12 12:23:57;;;;;;;8.55;7.53;;;;;;;22.27;100.00;101842.19;10299983;28;20097;-74
2023/05/12 12:28:58;;;;;;;14.55;7.88;;;;;;;22.18;100.00;101861.13;10302431;28;20042;-76
2023/05/12 12:33:58;;;;;;;8.27;7.40;;;;;;;22.46;100.00;101846.38;10298676;28;20117;-73
2023/05/12 12:38:59;;;;;;;6.47;5.72;;;;;;;22.68;100.00;101856.59;10299395;28;20046;-77
2023/05/12 12:43:59;;;;;;;9.65;7.18;;;;;;;22.32;100.00;101852.50;10300389;28;20363;-75
2023/05/12 12:49:00;;;;;;;8.32;7.55;;;;;;;22.06;100.00;101866.69;10297420;28;20051;-77
2023/05/12 12:54:00;;;;;;;11.65;8.50;;;;;;;;;;10307351;28;20034;-77
2023/05/12 12:59:00;;;;;;;11.57;8.10;;;;;;;21.42;100.00;101863.34;10297715;28;20038;-74
2023/05/12 13:04:01;;;;;;;14.68;6.45;;;;;;;21.82;100.00;101857.75;10296048;28;20039;-75
2023/05/12 13:09:02;;;;;;;7.35;6.45;;;;;;;21.97;100.00;101876.47;10295453;28;20038;-75
2023/05/12 13:14:03;;;;;;;13.13;9.13;;;;;;;21.80;100.00;101862.69;10281665;28;20054;-74
2023/05/12 13:19:04;;;;;;;13.45;10.73;;;;;;;23.11;100.00;101871.56;10296183;28;20083;-75
2023/05/12 13:24:04;;;;;;;12.25;9.00;;;;;;;23.56;100.00;101860.16;10297060;28;20375;-73
2023/05/12 13:29:05;;;;;;;7.43;6.80;;;;;;;22.80;100.00;101865.59;10296344;28;20107;-74
2023/05/12 13:34:06;;;;;;;8.10;5.70;;;;;;;21.76;100.00;101864.25;10295661;28;20069;-73
2023/05/12 13:39:08;;;;;;;8.38;7.57;;;;;;;22.04;100.00;101859.75;10296549;28;20056;-77
2023/05/12 13:44:09;;;;;;;15.43;10.20;;;;;;;21.73;100.00;101867.53;10295850;28;20039;-76
2023/05/12 13:49:09;;;;;;;11.77;10.57;;;;;;;21.62;100.00;101870.34;10296461;28;20467;-75
2023/05/12 13:54:10;;;;;;;13.43;9.43;;;;;;;22.25;100.00;101864.53;10277874;28;20512;-76
2023/05/12 13:59:11;;;;;;;11.90;9.98;;;;;;;21.57;100.00;101879.34;10295532;28;20478;-73
2023/05/12 14:04:11;;;;;;;14.10;10.63;;;;;;;20.53;100.00;101868.34;10299291;28;20038;-75
2023/05/12 14:09:13;;;;;;;14.05;10.20;;;;;;;20.07;100.00;101878.22;10206896;28;20051;-74
2023/05/12 14:14:13;;;;;;;15.55;11.10;;;;;;;19.89;100.00;101873.66;10297482;28;20042;-76
2023/05/12 14:19:13;;;;;;;12.95;10.15;;;;;;;19.62;100.00;101882.28;10276276;28;20031;-79
2023/05/12 14:24:14;;;;;;;10.68;9.45;;;;;;;19.60;100.00;101878.94;10279949;28;20046;-74
2023/05/12 14:29:15;;;;;;;10.82;8.55;;;;;;;19.50;100.00;101887.72;10294730;28;20094;-77
2023/05/12 14:34:15;;;;;;;10.98;9.77;;;;;;;19.44;100.00;101893.31;10280369;28;20035;-73
2023/05/12 14:39:16;;;;;;;19.42;9.52;;;;;;;19.35;100.00;101895.56;10292988;28;20043;-79
2023/05/12 14:44:16;;;;;;;11.02;9.48;;;;;;;19.60;100.00;101895.41;10293348;28;20053;-76
2023/05/12 14:49:19;;;;;;;13.98;8.48;;;;;;;20.89;100.00;101898.34;10283722;28;20059;-76
2023/05/12 14:54:20;;;;;;;10.75;8.75;;;;;;;20.96;100.00;101898.19;10278031;28;20042;-76
2023/05/12 14:59:20;;;;;;;10.68;8.10;;;;;;;20.52;100.00;101897.78;10277614;28;20506;-76
2023/05/12 15:04:21;;;;;;;12.52;9.32;;;;;;;20.04;100.00;101904.31;10248769;28;20069;-74
2023/05/12 15:09:21;;;;;;;9.32;7.95;;;;;;;19.78;100.00;101916.50;10282322;28;20079;-74
2023/05/12 15:14:22;;;;;;;12.38;8.73;;;;;;;19.74;100.00;101912.56;10281020;28;20118;-76
2023/05/12 15:19:22;;;;;;;9.00;7.70;;;;;;;19.89;100.00;101914.91;10295519;28;20039;-77
2023/05/12 15:24:22;;;;;;;13.25;8.05;;;;;;;20.04;100.00;101912.56;10292811;28;20038;-77
2023/05/12 15:29:23;;;;;;;7.55;6.30;;;;;;;20.09;100.00;101911.81;10295335;28;20030;-78
2023/05/12 15:34:23;;;;;;;8.32;7.15;;;;;;;20.00;100.00;101921.50;10286152;28;20121;-75
2023/05/12 15:39:25;;;;;;;9.68;6.78;;;;;;;19.87;100.00;101922.53;10304680;28;20077;-79
2023/05/12 15:44:25;;;;;;;7.95;6.30;;;;;;;19.90;100.00;101922.91;10284915;28;20051;-77
2023/05/12 15:49:25;;;;;;;5.80;5.28;;;;;;;20.02;100.00;101933.09;10300432;28;20055;-77
2023/05/12 15:54:26;;;;;;;9.60;5.47;;;;;;;20.16;100.00;101935.38;10301125;28;20058;-75
2023/05/12 15:59:26;;;;;;;9.68;5.95;;;;;;;20.29;100.00;101930.75;10282068;28;20125;-76
2023/05/12 16:04:28;;;;;;;11.30;4.85;;;;;;;20.50;100.00;101926.59;10298728;28;20470;-77
2023/05/12 16:09:29;;;;;;;6.40;5.75;;;;;;;20.61;100.00;101912.00;10299447;28;20041;-75
2023/05/12 16:14:29;;;;;;;5.10;4.60;;;;;;;20.68;100.00;101921.00;10282055;28;20498;-74
2023/05/12 16:19:29;;;;;;;5.18;4.78;;;;;;;20.60;100.00;101911.16;10298860;28;20031;-76
2023/05/12 16:24:30;;;;;;;6.47;5.10;;;;;;;20.73;100.00;101910.09;10281644;28;20125;-75
2023/05/12 16:29:30;;;;;;;5.88;5.32;;;;;;;20.72;100.00;101902.91;10298408;28;20497;-75
2023/05/12 16:34:31;;;;;;;4.75;4.07;;;;;;;20.60;100.00;101902.91;10298110;28;20035;-76
2023/05/12 16:39:32;;;;;;;5.07;4.22;;;;;;;20.43;100.00;101915.69;10264289;28;20055;-77
2023/05/12 16:44:32;;;;;;;6.05;4.45;;;;;;;20.10;100.00;101919.84;10296862;28;20031;-76
2023/05/12 16:49:33;;;;;;;6.13;5.50;;;;;;;19.86;100.00;101929.94;10297241;28;20358;-76
2023/05/12 16:54:33;;;;;;;15.73;6.38;;;;;;;19.55;100.00;101933.72;10280134;28;20081;-76
2023/05/12 16:59:35;;;;;;;8.30;7.40;;;;;;;19.42;100.00;101931.16;10297232;28;20046;-75
2023/05/12 17:04:36;;;;;;;11.85;8.05;;;;;;;19.29;100.00;101938.50;10280076;28;20490;-75
2023/05/12 17:09:36;;;;;;;9.85;8.75;;;;;;;19.28;100.00;101930.50;10278468;28;20030;-75
2023/05/12 17:14:37;;;;;;;9.20;7.93;;;;;;;19.56;100.00;101942.81;10298120;28;20062;-76
2023/05/12 17:19:40;;;;;;;16.25;10.00;;;;;;;20.03;100.00;101965.84;10277896;28;20502;-75
2023/05/12 17:24:41;;;;;;;2.25;2.13;;;;;;;18.95;100.00;102022.31;10263078;28;20430;-75
2023/05/12 17:29:41;;;;;;;3.58;3.10;;;;;;;16.58;100.00;102028.59;10270706;28;20043;-77
2023/05/12 17:34:41;;;;;;;4.05;3.65;;;;;;;15.17;100.00;102017.41;10280202;28;20105;-70
2023/05/12 17:39:43;;;;;;;3.90;3.60;;;;;;;14.35;100.00;102013.38;10295502;28;20026;-71
2023/05/12 17:44:44;;;;;;;4.32;3.90;;;;;;;13.92;100.00;101997.84;10295691;28;20102;-71
2023/05/12 17:49:44;;;;;;;6.47;4.00;;;;;;;13.99;100.00;102011.53;10277879;28;20540;-73
2023/05/12 17:54:44;;;;;;;3.33;3.03;;;;;;;14.14;100.00;101995.16;10278560;28;20058;-73
2023/05/12 17:59:45;;;;;;;5.13;4.72;;;;;;;14.28;100.00;101987.94;10277261;28;20115;-72
2023/05/12 18:04:46;;;;;;;4.75;4.30;;;;;;;14.42;100.00;102006.97;10294062;28;20141;-73
2023/05/12 18:09:46;;;;;;;6.32;5.30;;;;;;;14.44;100.00;102004.03;10276653;28;20037;-73
2023/05/12 18:14:47;;;;;;;10.02;5.75;;;;;;;14.54;100.00;102011.91;10293685;28;20038;-73
2023/05/12 18:19:47;;;;;;;6.45;5.80;;;;;;;14.61;100.00;102018.25;10276149;28;20367;-74
2023/05/12 18:24:49;;;;;;;10.02;5.38;;;;;;;14.70;100.00;102024.41;10260742;28;20046;-74
2023/05/12 18:29:49;;;;;;;6.50;4.60;;;;;;;14.74;100.00;102007.47;10293273;28;20041;-72
2023/05/12 18:34:50;;;;;;;6.72;6.13;;;;;;;14.83;100.00;102027.22;10293019;28;20035;-74
2023/05/12 18:39:53;;;;;;;14.15;7.13;;;;;;;14.92;100.00;102025.19;10275909;28;20378;-74
2023/05/12 18:44:56;;;;;;;8.95;7.28;;;;;;;14.96;100.00;102031.94;10293786;28;20039;-73
2023/05/12 18:49:56;;;;;;;10.45;8.38;;;;;;;14.96;100.00;102029.22;10281556;28;20399;-73
2023/05/12 18:54:57;;;;;;;16.10;9.90;;;;;;;15.02;100.00;102034.72;10275742;28;20039;-74
2023/05/12 18:59:57;;;;;;;16.83;11.60;;;;;;;15.07;100.00;102040.41;10276198;28;20391;-73
2023/05/12 19:04:58;;;;;;;16.77;12.40;;;;;;;15.14;100.00;102051.38;10293225;28;20113;-74
2023/05/12 19:09:58;;;;;;;19.52;13.73;;;;;;;15.18;100.00;102052.66;10267138;28;20067;-73
2023/05/12 19:14:59;;;;;;;27.23;15.00;;;;;;;15.19;100.00;102067.13;10301325;28;20118;-75
2023/05/12 19:19:59;;;;;;;20.90;15.77;;;;;;;15.16;100.00;102067.56;10283513;28;20057;-76
2023/05/12 19:25:03;;;;;;;26.85;17.77;;;;;;;15.10;100.00;102075.50;10268144;28;20422;-74
2023/05/12 19:30:04;;;;;;;23.98;17.05;;;;;;;15.04;100.00;102084.47;10268939;28;20041;-74
2023/05/12 19:35:05;;;;;;;24.55;19.42;;;;;;;15.02;100.00;102078.34;10300411;28;20046;-74
2023/05/12 19:40:06;;;;;;;28.98;19.55;;;;;;;14.98;100.00;102082.53;10300027;28;20027;-74
2023/05/12 19:45:07;;;;;;;21.27;17.35;;;;;;;14.93;100.00;102089.59;10299333;28;20403;-75
2023/05/12 19:50:08;;;;;;;33.03;18.17;;;;;;;14.87;100.00;102089.38;10265723;28;20055;-75
2023/05/12 19:55:08;;;;;;;30.13;20.55;;;;;;;14.78;100.00;102092.44;10266774;28;20115;-75
2023/05/12 20:00:09;;;;;;;24.23;18.98;;;;;;;14.72;100.00;102093.22;10298375;28;20031;-76
2023/05/12 20:05:10;;;;;;;37.10;20.75;;;;;;;14.63;100.00;102115.16;10281442;28;20055;-76
2023/05/12 20:10:10;;;;;;;31.23;19.98;;;;;;;14.56;100.00;102114.25;10298733;28;20086;-75
2023/05/12 20:15:11;;;;;;;41.42;21.65;;;;;;;14.54;100.00;102118.19;10299059;28;20122;-76
2023/05/12 20:20:11;;;;;;;26.38;20.90;;;;;;;14.48;100.00;102121.66;10297453;28;20031;-76
2023/05/12 20:25:14;;;;;;;34.80;20.95;;;;;;;14.35;100.00;102123.19;10286090;28;20039;-76
2023/05/12 20:30:15;;;;;;;33.58;19.95;;;;;;;14.28;100.00;102127.75;10281221;28;20038;-76
2023/05/12 20:35:16;;;;;;;40.03;20.98;;;;;;;14.16;100.00;102130.09;10297542;28;20223;-75
2023/05/12 20:40:17;;;;;;;30.80;22.55;;;;;;;14.08;100.00;102126.69;10297876;28;20130;-74
2023/05/12 20:45:17;;;;;;;32.33;20.35;;;;;;;14.01;100.00;102129.31;10297173;28;20468;-77
2023/05/12 20:50:18;;;;;;;30.20;19.05;;;;;;;13.96;100.00;102139.94;10264252;28;20055;-76
2023/05/12 20:55:18;;;;;;;33.75;20.23;;;;;;;13.93;100.00;102143.88;10296923;28;20135;-76
2023/05/12 21:00:19;;;;;;;19.88;16.80;;;;;;;13.92;100.00;102141.34;10295566;28;20035;-76
2023/05/12 21:05:19;;;;;;;20.95;16.65;;;;;;;13.92;100.00;102142.19;10296507;28;20054;-77
2023/05/12 21:10:20;;;;;;;26.60;17.45;;;;;;;13.96;100.00;102140.75;10296204;28;20118;-76
2023/05/12 21:15:20;;;;;;;20.70;17.17;;;;;;;13.99;100.00;102142.28;10295984;28;20527;-75
2023/05/12 21:20:20;;;;;;;22.58;17.13;;;;;;;14.04;100.00;102145.28;10295778;28;20041;-76
2023/05/12 21:25:21;;;;;;;20.73;16.83;;;;;;;14.03;100.00;102143.56;10295604;28;20503;-77
2023/05/12 21:30:22;;;;;;;23.15;15.32;;;;;;;14.08;100.00;102149.31;10279115;28;20039;-75
2023/05/12 21:35:22;;;;;;;23.17;16.45;;;;;;;14.09;100.00;102148.25;10277832;28;20051;-76
2023/05/12 21:40:23;;;;;;;18.20;16.35;;;;;;;14.13;100.00;102156.88;10294819;28;20058;-77
2023/05/12 21:45:23;;;;;;;22.13;16.25;;;;;;;14.14;100.00;102162.16;10295556;28;20469;-76
2023/05/12 21:50:24;;;;;;;21.17;15.10;;;;;;;14.12;100.00;102166.09;10277713;28;20344;-75
2023/05/12 21:55:25;;;;;;;18.63;16.25;;;;;;;14.10;100.00;102160.88;10277952;28;20049;-74
2023/05/12 22:00:25;;;;;;;17.73;15.43;;;;;;;14.05;100.00;102166.03;10296220;28;20528;-75
2023/05/12 22:05:26;;;;;;;16.55;14.52;;;;;;;14.05;100.00;102160.56;10294962;28;20043;-74
2023/05/12 22:10:26;;;;;;;22.10;16.90;;;;;;;14.03;100.00;102154.47;10277532;28;20042;-75
2023/05/12 22:15:26;;;;;;;21.40;16.20;;;;;;;14.09;100.00;102169.22;10276335;28;20070;-74
2023/05/12 22:20:27;;;;;;;27.15;16.38;;;;;;;14.12;100.00;102168.84;10293349;28;20038;-74
2023/05/12 22:25:27;;;;;;;25.98;17.60;;;;;;;14.16;100.00;102181.88;10276503;28;20035;-74
2023/05/12 22:30:29;;;;;;;21.27;17.48;;;;;;;14.22;100.00;102182.16;10291671;28;20538;-76